New Orleans, Louisiana
Traffic Map
Current Weather Conditions
New Orleans, Louisiana
Clear
Clear
77°
Feels Like: 79°
Wind Chill: 77° Ceiling: Unl
Heat Index: 79° Visibility: 10mi
Dew Point: 70° Wind: 7mph
Humidity: 78% Direction: 150° (SSE)
Pressure: 29.91in Gusts: 0mph
Raw Report DataKVSH 011235Z AUTO 15006KT 10SM CLR 25/21 A2991 RMK AO1
Traffic Incident Summary
Active as of:
Severity:
Category:
InformationThere was an issue retrieving the traffic information for this location. Please try a different location or try again shortly.
Advertisements
Track Severe Weather on mobile